Time;durP1;ratioP1;P1;durP2;ratioP2;P2;SDS_P1;SDS_P2;PMS_P1;PMS_P2;Temp;Humidity;BMP_temperature;BMP_pressure;BME280_temperature;BME280_humidity;BME280_pressure;Samples;Min_cycle;Max_cycle;Signal;HPM_P1;HPM_P2
2021/11/23 00:02:27;;;;;;;5.38;2.25;;;;;;;5.69;100.00;101625.53;5071830;28;20051;-51
2021/11/23 00:05:31;;;;;;;0.63;0.63;;;;;;;5.79;100.00;101624.69;5076598;28;20451;-51
2021/11/23 00:08:34;;;;;;;0.63;0.63;;;;;;;5.90;100.00;101624.69;5076148;28;20456;-52
2021/11/23 00:11:37;;;;;;;3.30;1.42;;;;;;;5.92;100.00;101625.88;5075782;28;20083;-51
2021/11/23 00:14:41;;;;;;;3.45;1.20;;;;;;;6.02;100.00;101625.03;5075579;28;20558;-51
2021/11/23 00:17:44;;;;;;;7.20;1.02;;;;;;;6.00;100.00;101624.63;5075687;28;20102;-51
2021/11/23 00:20:47;;;;;;;1.40;1.30;;;;;;;6.07;100.00;101626.59;5075673;28;20044;-52
2021/11/23 00:23:50;;;;;;;0.77;0.77;;;;;;;6.02;100.00;101615.97;5092568;28;20093;-52
2021/11/23 00:26:53;;;;;;;0.80;0.80;;;;;;;5.89;100.00;101615.59;5076554;28;20040;-52
2021/11/23 00:29:56;;;;;;;0.88;0.85;;;;;;;5.90;100.00;101617.19;5075641;28;20086;-52
2021/11/23 00:32:59;;;;;;;2.17;0.70;;;;;;;5.94;100.00;101612.44;5075554;28;20444;-51
2021/11/23 00:36:02;;;;;;;0.60;0.60;;;;;;;6.00;100.00;101599.75;5075623;28;20086;-52
2021/11/23 00:39:06;;;;;;;0.13;0.13;;;;;;;6.11;100.00;101605.22;5075462;28;20400;-51
2021/11/23 00:42:09;;;;;;;1.92;1.13;;;;;;;6.05;100.00;101593.81;5075314;28;20526;-51
2021/11/23 00:45:12;;;;;;;4.70;0.85;;;;;;;6.09;100.00;101597.34;5075370;28;20071;-52
2021/11/23 00:48:15;;;;;;;2.20;1.08;;;;;;;6.06;100.00;101592.59;5073718;28;20563;-51
2021/11/23 00:51:18;;;;;;;1.15;0.93;;;;;;;6.07;100.00;101594.19;5075104;28;20633;-52
2021/11/23 00:54:21;;;;;;;0.80;0.80;;;;;;;6.05;100.00;101602.09;5075094;28;20048;-52
2021/11/23 00:57:24;;;;;;;0.43;0.43;;;;;;;6.13;100.00;101596.56;5075064;28;20447;-52
2021/11/23 01:00:26;;;;;;;1.00;0.65;;;;;;;6.15;100.00;101594.16;5075034;28;20467;-52
2021/11/23 01:03:32;;;;;;;0.40;0.40;;;;;;;6.30;100.00;101590.13;5075084;28;20157;-52
2021/11/23 01:06:35;;;;;;;0.70;0.70;;;;;;;6.43;100.00;101594.00;5075084;28;20097;-52
2021/11/23 01:09:39;;;;;;;1.48;1.15;;;;;;;6.51;100.00;101598.28;5074986;28;20079;-52
2021/11/23 01:12:42;;;;;;;1.00;0.60;;;;;;;6.64;100.00;101599.41;5075085;28;20035;-52
2021/11/23 01:15:45;;;;;;;1.05;0.68;;;;;;;6.74;100.00;101598.53;5073768;28;20039;-52
2021/11/23 01:18:49;;;;;;;0.25;0.25;;;;;;;6.96;100.00;101602.69;5074709;28;20130;-52
2021/11/23 01:21:51;;;;;;;1.38;1.27;;;;;;;7.06;100.00;101599.03;5075145;28;20165;-51
2021/11/23 01:24:54;;;;;;;0.43;0.20;;;;;;;7.12;100.00;101591.88;5079049;28;20442;-52
2021/11/23 01:27:57;;;;;;;0.68;0.40;;;;;;;7.16;100.00;101592.63;5074464;28;20446;-52
2021/11/23 01:31:02;;;;;;;0.20;0.20;;;;;;;7.11;100.00;101590.31;5091185;28;20529;-52
2021/11/23 01:34:05;;;;;;;0.40;0.40;;;;;;;7.22;100.00;101591.00;5085528;28;20086;-52
2021/11/23 01:37:08;;;;;;;0.82;0.20;;;;;;;7.35;100.00;101589.28;5085093;28;20068;-52
2021/11/23 01:40:13;;;;;;;0.20;0.20;;;;;;;7.29;100.00;101582.63;5074499;28;20126;-52
2021/11/23 01:43:16;;;;;;;0.98;0.60;;;;;;;7.28;100.00;101578.25;5089790;28;20082;-53
2021/11/23 01:46:20;;;;;;;0.60;0.60;;;;;;;7.40;100.00;101575.00;5073671;28;20051;-53
2021/11/23 01:49:24;;;;;;;0.50;0.50;;;;;;;7.31;100.00;101583.00;5074156;28;20047;-52
2021/11/23 01:52:27;;;;;;;0.40;0.40;;;;;;;7.35;100.00;101580.97;5074454;28;20040;-52
2021/11/23 01:55:33;;;;;;;0.65;0.65;;;;;;;7.37;100.00;101583.31;5073220;28;20094;-52
2021/11/23 01:58:36;;;;;;;0.65;0.30;;;;;;;7.35;100.00;101575.44;5072315;28;20454;-52
2021/11/23 02:01:39;;;;;;;0.47;0.47;;;;;;;7.35;100.00;101572.66;5072310;28;20081;-53
2021/11/23 02:04:42;;;;;;;1.35;0.75;;;;;;;7.34;100.00;101576.59;5073373;28;20051;-52
2021/11/23 02:07:46;;;;;;;0.30;0.30;;;;;;;7.38;100.00;101571.06;5073778;28;20192;-52
2021/11/23 02:10:50;;;;;;;0.40;0.38;;;;;;;7.37;100.00;101573.03;5073826;28;20050;-52
2021/11/23 02:13:52;;;;;;;0.10;0.10;;;;;;;7.40;100.00;101583.31;5073847;28;20456;-53
2021/11/23 02:16:56;;;;;;;0.30;0.30;;;;;;;7.47;100.00;101574.13;5073584;28;20182;-52
2021/11/23 02:19:59;;;;;;;1.15;0.68;;;;;;;7.48;100.00;101572.91;5073560;28;20120;-52
2021/11/23 02:23:02;;;;;;;0.60;0.57;;;;;;;7.49;100.00;101566.94;5083581;28;20050;-52
2021/11/23 02:26:06;;;;;;;3.08;1.00;;;;;;;7.44;100.00;101564.66;5073325;28;20040;-53
2021/11/23 02:29:09;;;;;;;0.80;0.55;;;;;;;7.45;100.00;101566.19;5072833;28;20078;-52
2021/11/23 02:32:11;;;;;;;0.20;0.10;;;;;;;7.47;100.00;101566.56;5073430;28;20177;-52
2021/11/23 02:35:14;;;;;;;0.22;0.22;;;;;;;7.43;100.00;101567.81;5073547;28;20135;-52
2021/11/23 02:38:22;;;;;;;1.75;0.75;;;;;;;7.42;100.00;101555.97;5072787;28;20050;-53
2021/11/23 02:41:25;;;;;;;0.55;0.20;;;;;;;7.41;100.00;101554.38;5072875;28;20182;-53
2021/11/23 02:44:28;;;;;;;14.60;0.80;;;;;;;7.37;100.00;101561.94;5072871;28;20043;-53
2021/11/23 02:47:33;;;;;;;1.83;0.70;;;;;;;7.34;100.00;101554.44;5073118;28;20442;-52
2021/11/23 02:50:37;;;;;;;0.70;0.70;;;;;;;7.32;100.00;101554.06;5084672;28;20109;-52
2021/11/23 02:53:41;;;;;;;0.32;0.32;;;;;;;7.23;100.00;101548.25;5071806;28;20086;-52
2021/11/23 02:56:44;;;;;;;0.68;0.68;;;;;;;7.29;100.00;101545.81;5072639;28;20044;-52
2021/11/23 02:59:47;;;;;;;0.40;0.40;;;;;;;7.33;100.00;101543.78;5072968;28;20097;-53
2021/11/23 03:02:50;;;;;;;0.40;0.30;;;;;;;7.42;100.00;101541.31;5072734;28;20048;-52
2021/11/23 03:05:54;;;;;;;0.40;0.40;;;;;;;7.49;100.00;101530.16;5071002;28;20085;-53
2021/11/23 03:08:57;;;;;;;1.75;0.47;;;;;;;7.51;100.00;101531.28;5072709;28;20508;-53
2021/11/23 03:12:00;;;;;;;0.25;0.25;;;;;;;7.56;100.00;101527.28;5071768;28;20043;-52
2021/11/23 03:15:08;;;;;;;1.65;0.75;;;;;;;7.57;100.00;101535.19;5072569;28;20063;-52
2021/11/23 03:18:11;;;;;;;1.10;0.38;;;;;;;7.66;100.00;101531.91;5072521;28;20506;-53
2021/11/23 03:21:14;;;;;;;3.97;1.08;;;;;;;7.79;100.00;101526.59;5072653;28;20127;-52
2021/11/23 03:24:17;;;;;;;0.75;0.43;;;;;;;7.88;100.00;101526.88;5072703;28;20102;-52
2021/11/23 03:27:20;;;;;;;0.70;0.70;;;;;;;7.99;100.00;101521.97;5072464;28;20097;-53
2021/11/23 03:30:27;;;;;;;0.30;0.30;;;;;;;8.09;100.00;101518.25;5072465;28;20044;-52
2021/11/23 03:33:30;;;;;;;0.65;0.30;;;;;;;8.15;100.00;101513.81;5072341;28;20047;-52
2021/11/23 03:36:39;;;;;;;1.10;0.55;;;;;;;8.25;100.00;101512.88;5072621;28;20051;-52
2021/11/23 03:39:44;;;;;;;4.20;0.80;;;;;;;8.32;100.00;101512.78;5071899;28;20052;-53
2021/11/23 03:42:47;;;;;;;0.63;0.63;;;;;;;8.36;100.00;101513.50;5071694;28;20060;-53
2021/11/23 03:45:49;;;;;;;2.60;0.60;;;;;;;8.41;100.00;101518.59;5072033;28;20097;-52
2021/11/23 03:48:52;;;;;;;1.75;0.40;;;;;;;8.41;100.00;101518.59;5071861;28;20048;-53
2021/11/23 03:51:55;;;;;;;1.75;0.85;;;;;;;8.35;100.00;101512.75;5071613;28;20054;-52
2021/11/23 03:54:58;;;;;;;0.40;0.30;;;;;;;8.38;100.00;101522.25;5071891;28;20047;-52
2021/11/23 03:58:02;;;;;;;1.35;0.50;;;;;;;8.47;100.00;101518.94;5071709;28;20043;-52
2021/11/23 04:01:05;;;;;;;1.75;0.43;;;;;;;8.53;100.00;101523.59;5071750;28;20048;-53
2021/11/23 04:04:09;;;;;;;0.47;0.47;;;;;;;8.61;100.00;101522.25;5071950;28;20040;-53
2021/11/23 04:07:13;;;;;;;0.95;0.52;;;;;;;8.62;100.00;101526.59;5071914;28;20035;-52
2021/11/23 04:10:17;;;;;;;1.58;1.08;;;;;;;8.59;100.00;101518.31;5071962;28;20051;-53
2021/11/23 04:13:20;;;;;;;0.80;0.80;;;;;;;8.54;100.00;101519.59;5071925;28;20059;-52
2021/11/23 04:16:23;;;;;;;0.68;0.40;;;;;;;8.60;100.00;101515.13;5071464;28;20039;-53
2021/11/23 04:19:28;;;;;;;0.75;0.30;;;;;;;8.57;100.00;101513.22;5071404;28;20090;-53
2021/11/23 04:22:31;;;;;;;2.60;1.40;;;;;;;8.61;100.00;101515.91;5077332;28;20078;-53
2021/11/23 04:25:34;;;;;;;0.35;0.35;;;;;;;8.62;100.00;101520.28;5071877;28;20094;-53
2021/11/23 04:28:38;;;;;;;0.45;0.45;;;;;;;8.57;100.00;101512.41;5071598;28;20059;-53
2021/11/23 04:31:42;;;;;;;0.60;0.60;;;;;;;8.61;100.00;101522.25;5071965;28;20059;-53
2021/11/23 04:34:45;;;;;;;0.63;0.40;;;;;;;8.66;100.00;101512.66;5071665;28;20571;-53
2021/11/23 04:37:48;;;;;;;0.38;0.35;;;;;;;8.68;100.00;101516.59;5071335;28;20035;-53
2021/11/23 04:40:51;;;;;;;9.07;0.95;;;;;;;8.73;100.00;101524.44;5071715;28;20401;-52
2021/11/23 04:43:54;;;;;;;0.93;0.25;;;;;;;8.70;100.00;101530.06;5071594;28;20067;-53
2021/11/23 04:46:56;;;;;;;2.65;1.10;;;;;;;8.68;100.00;101513.81;5080897;28;20042;-53
2021/11/23 04:49:59;;;;;;;1.42;0.75;;;;;;;8.79;100.00;101519.94;5071993;28;20044;-53
2021/11/23 04:53:03;;;;;;;0.80;0.40;;;;;;;8.90;100.00;101515.00;5081010;28;20131;-53
2021/11/23 04:56:06;;;;;;;5.60;0.63;;;;;;;8.93;100.00;101514.16;5075419;28;20039;-53
2021/11/23 04:59:10;;;;;;;0.38;0.38;;;;;;;8.97;100.00;101517.66;5075621;28;20039;-53
2021/11/23 05:02:13;;;;;;;0.68;0.68;;;;;;;9.04;100.00;101508.41;5075246;28;20044;-53
2021/11/23 05:05:16;;;;;;;0.45;0.40;;;;;;;9.05;100.00;101499.63;5075175;28;20432;-53
2021/11/23 05:08:19;;;;;;;2.83;0.88;;;;;;;9.08;100.00;101509.13;5075595;28;20052;-53
2021/11/23 05:11:26;;;;;;;0.95;0.80;;;;;;;9.13;100.00;101509.44;5075376;28;20094;-52
2021/11/23 05:14:29;;;;;;;11.05;1.20;;;;;;;9.10;100.00;101507.50;5075054;28;20096;-53
2021/11/23 05:17:32;;;;;;;0.75;0.75;;;;;;;9.11;100.00;101513.84;5074799;28;20094;-52
2021/11/23 05:20:35;;;;;;;2.28;1.15;;;;;;;9.13;100.00;101508.66;5074790;28;20090;-53
2021/11/23 05:23:38;;;;;;;7.85;0.90;;;;;;;9.18;100.00;101506.16;5088606;28;20519;-53
2021/11/23 05:26:42;;;;;;;2.72;0.82;;;;;;;9.24;100.00;101508.44;5074509;28;20115;-53
2021/11/23 05:29:46;;;;;;;0.50;0.35;;;;;;;9.30;100.00;101499.19;5074062;28;20047;-53
2021/11/23 05:32:48;;;;;;;1.15;1.15;;;;;;;9.33;100.00;101508.66;5083164;28;20063;-53
2021/11/23 05:35:51;;;;;;;1.17;0.68;;;;;;;9.25;100.00;101518.38;5075073;28;20059;-53
2021/11/23 05:38:54;;;;;;;5.63;1.23;;;;;;;9.26;100.00;101515.16;5074191;28;20047;-53
2021/11/23 05:41:57;;;;;;;3.95;0.55;;;;;;;9.35;100.00;101520.16;5073834;28;20554;-53
2021/11/23 05:45:00;;;;;;;2.95;1.17;;;;;;;9.36;100.00;101516.13;5085597;28;20043;-53
2021/11/23 05:48:04;;;;;;;1.85;0.50;;;;;;;9.38;100.00;101514.50;5074083;28;20043;-52
2021/11/23 05:51:06;;;;;;;0.50;0.50;;;;;;;9.50;100.00;101518.66;5074041;28;20091;-53
2021/11/23 05:54:10;;;;;;;2.80;0.85;;;;;;;9.60;100.00;101518.44;5076868;28;20102;-53
2021/11/23 05:57:13;;;;;;;12.80;1.77;;;;;;;9.72;100.00;101511.44;5074058;28;20507;-52
2021/11/23 06:00:16;;;;;;;0.30;0.30;;;;;;;9.73;100.00;101505.44;5073780;28;20052;-53
2021/11/23 06:03:20;;;;;;;0.40;0.32;;;;;;;9.69;100.00;101515.88;5073224;28;20048;-53
2021/11/23 06:06:24;;;;;;;0.73;0.55;;;;;;;9.75;100.00;101510.56;5073157;28;20404;-53
2021/11/23 06:09:28;;;;;;;2.30;0.90;;;;;;;9.86;100.00;101508.34;5074032;28;20185;-53
2021/11/23 06:12:31;;;;;;;1.48;1.38;;;;;;;9.85;100.00;101501.22;5073771;28;20043;-53
2021/11/23 06:15:34;;;;;;;1.13;0.50;;;;;;;9.87;100.00;101513.47;5073842;28;20043;-53
2021/11/23 06:18:37;;;;;;;2.38;1.10;;;;;;;9.85;100.00;101504.00;5073727;28;20094;-53
2021/11/23 06:21:41;;;;;;;5.70;1.80;;;;;;;9.89;100.00;101502.72;5073826;28;20098;-53
2021/11/23 06:24:45;;;;;;;2.97;0.43;;;;;;;10.03;100.00;101496.03;5073236;28;20036;-53
2021/11/23 06:27:47;;;;;;;1.65;0.65;;;;;;;10.02;100.00;101505.63;5073461;28;20101;-52
2021/11/23 06:30:51;;;;;;;6.53;0.95;;;;;;;10.02;100.00;101507.63;5071819;28;20098;-53
2021/11/23 06:33:55;;;;;;;0.30;0.30;;;;;;;10.08;100.00;101506.66;5075343;28;20043;-53
2021/11/23 06:37:00;;;;;;;4.78;0.63;;;;;;;10.18;100.00;101497.31;5084254;28;20097;-53
2021/11/23 06:40:09;;;;;;;1.23;0.68;;;;;;;10.17;100.00;101495.75;5072816;28;20062;-53
2021/11/23 06:43:13;;;;;;;3.50;1.25;;;;;;;10.12;100.00;101496.25;5072044;28;20141;-53
2021/11/23 06:46:16;;;;;;;5.88;1.55;;;;;;;10.11;100.00;101491.94;5071515;28;20051;-53
2021/11/23 06:49:20;;;;;;;13.25;2.15;;;;;;;10.06;100.00;101492.41;5073190;28;20090;-53
2021/11/23 06:52:24;;;;;;;24.77;3.53;;;;;;;10.20;100.00;101491.34;5073366;28;20101;-53
2021/11/23 06:55:27;;;;;;;6.93;2.30;;;;;;;10.22;100.00;101491.69;5072819;28;20052;-53
2021/11/23 06:58:30;;;;;;;11.77;2.10;;;;;;;10.33;100.00;101495.75;5073012;28;20042;-53
2021/11/23 07:01:34;;;;;;;9.20;3.65;;;;;;;10.35;100.00;101498.13;5073598;28;20185;-53
2021/11/23 07:04:37;;;;;;;9.70;3.42;;;;;;;10.30;100.00;101493.88;5072876;28;20063;-53
2021/11/23 07:07:40;;;;;;;3.55;1.83;;;;;;;10.31;100.00;101484.28;5072950;28;20047;-53
2021/11/23 07:10:48;;;;;;;11.35;3.60;;;;;;;10.33;100.00;101492.22;5071939;28;20044;-53
2021/11/23 07:13:51;;;;;;;6.88;3.42;;;;;;;10.31;100.00;101483.53;5062070;28;20095;-51
2021/11/23 07:16:54;;;;;;;16.10;2.58;;;;;;;10.46;100.00;101496.66;5036812;28;20136;-51
2021/11/23 07:19:57;;;;;;;0.82;0.82;;;;;;;10.43;100.00;101491.97;5034297;28;20102;-51
2021/11/23 07:23:00;;;;;;;0.55;0.55;;;;;;;10.45;100.00;101494.31;5037485;28;20089;-51
2021/11/23 07:26:03;;;;;;;2.55;1.40;;;;;;;10.51;100.00;101498.91;5067585;28;20507;-51
2021/11/23 07:29:08;;;;;;;3.22;1.95;;;;;;;10.51;100.00;101498.91;5072215;28;20035;-51
2021/11/23 07:32:11;;;;;;;2.20;1.40;;;;;;;10.63;100.00;101506.56;5072483;28;20063;-53
2021/11/23 07:35:18;;;;;;;2.40;0.77;;;;;;;10.63;100.00;101503.03;5072436;28;20047;-53
2021/11/23 07:38:21;;;;;;;1.65;1.55;;;;;;;10.62;100.00;101498.66;5072227;28;20148;-53
2021/11/23 07:41:24;;;;;;;1.50;0.88;;;;;;;10.59;100.00;101511.44;5072223;28;20504;-53
2021/11/23 07:44:27;;;;;;;3.28;0.45;;;;;;;10.53;100.00;101506.81;5071979;28;20127;-52
2021/11/23 07:47:30;;;;;;;1.83;0.80;;;;;;;10.49;100.00;101508.91;5071222;28;20044;-53
2021/11/23 07:50:33;;;;;;;0.45;0.45;;;;;;;10.45;100.00;101511.00;5077897;28;20039;-53
2021/11/23 07:53:36;;;;;;;1.33;1.00;;;;;;;10.46;100.00;101507.78;5071724;28;20109;-53
2021/11/23 07:56:39;;;;;;;5.97;1.15;;;;;;;10.63;100.00;101509.34;5071789;28;20079;-52
2021/11/23 07:59:43;;;;;;;3.40;0.55;;;;;;;10.62;100.00;101505.00;5071238;28;20063;-52
2021/11/23 08:02:46;;;;;;;0.90;0.50;;;;;;;10.62;100.00;101509.78;5071345;28;20043;-53
2021/11/23 08:05:50;;;;;;;4.03;0.98;;;;;;;10.66;100.00;101521.63;5079711;28;20418;-53
2021/11/23 08:08:52;;;;;;;1.45;0.40;;;;;;;10.63;100.00;101517.72;5071177;28;20052;-53
2021/11/23 08:11:55;;;;;;;4.30;1.00;;;;;;;10.68;100.00;101522.75;5070168;28;20052;-53
2021/11/23 08:14:58;;;;;;;0.68;0.52;;;;;;;10.68;100.00;101511.63;5070912;28;20036;-53
2021/11/23 08:18:02;;;;;;;0.57;0.55;;;;;;;10.66;100.00;101516.84;5070658;28;20123;-54
2021/11/23 08:21:12;;;;;;;0.13;0.13;;;;;;;10.70;100.00;101518.78;5054924;28;20302;-54
2021/11/23 08:24:32;;;;;;;3.33;0.50;;;;;;;10.90;100.00;101523.00;5062843;28;20523;-53
2021/11/23 08:27:39;;;;;;;0.85;0.52;;;;;;;10.98;100.00;101526.41;5047562;28;20480;-51
2021/11/23 08:30:42;;;;;;;1.85;0.40;;;;;;;11.02;100.00;101541.03;5039823;28;20136;-51
2021/11/23 08:33:46;;;;;;;9.52;1.15;;;;;;;11.05;100.00;101534.56;5037773;28;20349;-51
2021/11/23 08:36:49;;;;;;;0.68;0.30;;;;;;;11.09;100.00;101536.03;5046960;28;20513;-51
2021/11/23 08:39:56;;;;;;;0.43;0.43;;;;;;;11.10;100.00;101528.47;5046501;28;20118;-51
2021/11/23 08:42:59;;;;;;;0.88;0.77;;;;;;;11.10;100.00;101540.41;5044528;28;20566;-51
2021/11/23 08:46:03;;;;;;;1.15;0.57;;;;;;;11.21;100.00;101540.91;5045118;28;20043;-51
2021/11/23 08:49:07;;;;;;;0.73;0.73;;;;;;;11.16;100.00;101532.28;5056242;28;20036;-51
2021/11/23 08:52:13;;;;;;;0.98;0.70;;;;;;;11.20;100.00;101546.91;5060251;28;20589;-52
2021/11/23 08:55:16;;;;;;;1.55;0.47;;;;;;;11.28;100.00;101539.94;5068116;28;20050;-51
2021/11/23 08:58:19;;;;;;;0.38;0.32;;;;;;;11.29;100.00;101533.13;5042310;28;20047;-51
2021/11/23 09:01:25;;;;;;;0.50;0.50;;;;;;;11.31;100.00;101533.47;5046372;28;20499;-51
2021/11/23 09:04:29;;;;;;;0.60;0.55;;;;;;;11.43;100.00;101529.97;5032582;28;20529;-51
2021/11/23 09:07:33;;;;;;;0.10;0.10;;;;;;;11.48;100.00;101532.19;5048030;28;20109;-51
2021/11/23 09:10:39;;;;;;;0.38;0.38;;;;;;;11.49;100.00;101533.00;5033159;28;20035;-51
2021/11/23 09:13:42;;;;;;;0.35;0.35;;;;;;;11.48;100.00;101542.59;5033035;28;20828;-51
2021/11/23 09:16:46;;;;;;;0.30;0.30;;;;;;;11.52;100.00;101538.47;5036857;28;21247;-51
2021/11/23 09:19:49;;;;;;;0.30;0.30;;;;;;;11.52;100.00;101546.84;5033531;28;20143;-51
2021/11/23 09:22:52;;;;;;;0.20;0.20;;;;;;;11.54;100.00;101555.56;5042481;28;20754;-51
2021/11/23 09:25:55;;;;;;;1.50;0.55;;;;;;;11.54;100.00;101550.00;5035475;28;20081;-51
2021/11/23 09:28:58;;;;;;;3.38;0.82;;;;;;;11.49;100.00;101556.09;5036517;28;20102;-51
2021/11/23 09:32:02;;;;;;;6.68;0.77;;;;;;;11.43;100.00;101555.06;5037768;28;20174;-51
2021/11/23 09:35:05;;;;;;;0.13;0.13;;;;;;;11.32;100.00;101549.78;5037000;28;20062;-51
2021/11/23 09:38:09;;;;;;;0.85;0.40;;;;;;;11.15;100.00;101558.63;5033703;28;21095;-51
2021/11/23 09:41:12;;;;;;;2.47;0.20;;;;;;;11.31;100.00;101550.22;5033711;28;20040;-51
2021/11/23 09:44:15;;;;;;;0.77;0.63;;;;;;;11.47;100.00;101558.53;5040773;28;20035;-51
2021/11/23 09:47:19;;;;;;;1.40;0.50;;;;;;;11.49;100.00;101567.25;5036264;28;20094;-51
2021/11/23 09:50:23;;;;;;;0.47;0.38;;;;;;;11.51;100.00;101569.59;5034224;28;20250;-51
2021/11/23 09:53:26;;;;;;;0.43;0.40;;;;;;;11.62;100.00;101559.72;5033563;28;20036;-51
2021/11/23 09:56:30;;;;;;;0.60;0.60;;;;;;;11.62;100.00;101559.72;5037538;28;20732;-51
2021/11/23 09:59:35;;;;;;;0.20;0.20;;;;;;;11.68;100.00;101560.78;5035497;28;20047;-51
2021/11/23 10:02:40;;;;;;;0.30;0.30;;;;;;;11.75;100.00;101566.16;5033797;28;20173;-50
2021/11/23 10:05:43;;;;;;;1.10;0.85;;;;;;;11.76;100.00;101562.13;5033637;28;20054;-51
2021/11/23 10:08:48;;;;;;;0.47;0.43;;;;;;;11.83;100.00;101553.56;5043415;28;20082;-50
2021/11/23 10:11:51;;;;;;;0.20;0.20;;;;;;;11.76;100.00;101553.75;5032728;28;20035;-51
2021/11/23 10:15:07;;;;;;;0.57;0.32;;;;;;;11.86;100.00;101551.88;5052790;28;20617;-51
2021/11/23 10:18:20;;;;;;;1.33;0.30;;;;;;;11.92;100.00;101556.50;5045990;28;20043;-50
2021/11/23 10:21:26;;;;;;;0.40;0.40;;;;;;;12.03;100.00;101554.16;5036268;28;20573;-51
2021/11/23 10:24:36;;;;;;;0.75;0.60;;;;;;;12.09;100.00;101549.59;5073531;28;20055;-51
2021/11/23 10:27:43;;;;;;;6.53;0.60;;;;;;;12.05;100.00;101543.34;5073132;28;20040;-51
2021/11/23 10:30:49;;;;;;;0.43;0.43;;;;;;;12.08;100.00;101548.00;5073080;28;20043;-51
2021/11/23 10:34:25;;;;;;;1.52;0.57;;;;;;;12.10;100.00;101542.78;5072688;28;20088;-51
2021/11/23 10:37:31;;;;;;;2.05;0.77;;;;;;;12.13;100.00;101547.47;5073204;28;20048;-51
2021/11/23 10:40:37;;;;;;;1.50;0.80;;;;;;;12.14;100.00;101539.88;5073068;28;20087;-51
2021/11/23 10:43:42;;;;;;;0.50;0.20;;;;;;;12.18;100.00;101526.59;5072810;28;20051;-51
2021/11/23 10:46:57;;;;;;;0.30;0.30;;;;;;;12.23;100.00;101530.84;5073166;28;20078;-51
2021/11/23 10:50:07;;;;;;;0.63;0.45;;;;;;;12.29;100.00;101523.44;5073382;28;20119;-51
2021/11/23 10:53:13;;;;;;;0.32;0.32;;;;;;;12.39;100.00;101528.69;5083783;28;20059;-51
2021/11/23 10:56:19;;;;;;;0.40;0.40;;;;;;;12.39;100.00;101527.94;5072642;28;20102;-51
2021/11/23 10:59:22;;;;;;;0.30;0.20;;;;;;;12.44;100.00;101530.16;5072576;28;20089;-51
2021/11/23 11:02:25;;;;;;;1.33;0.38;;;;;;;12.43;100.00;101528.59;5072217;28;20581;-51
2021/11/23 11:05:31;;;;;;;0.73;0.50;;;;;;;12.48;100.00;101516.84;5083002;28;20093;-51
2021/11/23 11:08:37;;;;;;;0.40;0.28;;;;;;;12.43;100.00;101518.19;5072183;28;20043;-51
2021/11/23 11:11:41;;;;;;;0.10;0.10;;;;;;;12.51;100.00;101513.16;5072019;28;20047;-51
2021/11/23 11:14:48;;;;;;;6.50;0.77;;;;;;;12.50;100.00;101503.22;5071609;28;20400;-51
2021/11/23 11:17:52;;;;;;;0.60;0.40;;;;;;;12.51;100.00;101507.59;5082609;28;20051;-51
2021/11/23 11:21:02;;;;;;;0.28;0.20;;;;;;;12.53;100.00;101496.75;5072169;28;20047;-51
2021/11/23 11:24:51;;;;;;;0.75;0.40;;;;;;;12.56;100.00;101499.41;5088417;28;20051;-51
2021/11/23 11:27:52;;;;;;;0.30;0.30;;;;;;;12.57;100.00;101491.81;5071651;28;20130;-50
2021/11/23 11:30:55;;;;;;;1.23;0.25;;;;;;;12.52;100.00;101500.75;5078243;28;20035;-50
2021/11/23 11:34:25;;;;;;;0.20;0.20;;;;;;;12.57;100.00;101494.59;5089842;28;20514;-51
2021/11/23 11:37:34;;;;;;;0.20;0.20;;;;;;;12.60;100.00;101488.13;5071872;28;20051;-50
2021/11/23 11:40:42;;;;;;;8.02;0.40;;;;;;;12.62;100.00;101485.66;5079489;28;20043;-50
2021/11/23 11:43:46;;;;;;;0.85;0.20;;;;;;;12.59;100.00;101486.53;5083509;28;20071;-51
2021/11/23 11:47:01;;;;;;;0.30;0.30;;;;;;;12.61;100.00;101479.28;5070919;28;20518;-51
2021/11/23 11:50:08;;;;;;;0.88;0.28;;;;;;;12.58;100.00;101480.16;5056926;28;20090;-51
2021/11/23 11:53:15;;;;;;;0.10;0.10;;;;;;;12.63;100.00;101482.41;5050172;28;20165;-52
2021/11/23 11:56:39;;;;;;;0.32;0.32;;;;;;;12.59;100.00;101480.97;5048577;28;20044;-52
2021/11/23 11:59:42;;;;;;;0.25;0.20;;;;;;;12.58;100.00;101479.41;5046534;28;20066;-52
2021/11/23 12:02:45;;;;;;;6.82;0.32;;;;;;;12.52;100.00;101475.59;5057627;28;20032;-53
2021/11/23 12:06:00;;;;;;;0.40;0.40;;;;;;;12.54;100.00;101473.16;5050250;28;20287;-52
2021/11/23 12:09:34;;;;;;;0.28;0.22;;;;;;;12.49;100.00;101473.72;5048059;28;20027;-52
2021/11/23 12:12:47;;;;;;;0.38;0.38;;;;;;;12.53;100.00;101477.16;5047087;28;20143;-50
2021/11/23 12:16:05;;;;;;;0.57;0.20;;;;;;;12.49;100.00;101468.91;5052132;28;20083;-53
2021/11/23 12:19:47;;;;;;;0.20;0.20;;;;;;;12.49;100.00;101470.91;5056000;28;20790;-53
2021/11/23 12:22:52;;;;;;;0.30;0.30;;;;;;;12.49;100.00;101465.34;5061283;28;20359;-51
2021/11/23 12:26:18;;;;;;;;;;;;;;;;;;;;;
2021/11/23 12:29:31;;;;;;;2.20;0.52;;;;;;;12.38;100.00;101464.91;5053825;28;20060;-53
2021/11/23 12:32:37;;;;;;;2.15;0.43;;;;;;;12.28;100.00;101460.44;5062307;28;20035;-52
2021/11/23 12:36:14;;;;;;;;;;;;;;;;;;;;;
2021/11/23 12:39:37;;;;;;;1.75;0.40;;;;;;;12.25;100.00;101455.75;5072723;22;20047;-51
2021/11/23 12:42:53;;;;;;;0.10;0.10;;;;;;;12.25;100.00;101450.16;5029193;28;20105;-50
2021/11/23 12:45:55;;;;;;;0.30;0.30;;;;;;;12.15;100.00;101444.47;5045098;28;20043;-51
2021/11/23 12:49:11;;;;;;;0.57;0.43;;;;;;;12.33;100.00;101441.09;5052065;28;20035;-50
2021/11/23 12:52:18;;;;;;;0.20;0.20;;;;;;;12.39;100.00;101449.72;5049058;28;20140;-51
2021/11/23 12:55:22;;;;;;;0.85;0.52;;;;;;;12.35;100.00;101454.63;5047783;28;20047;-50
2021/11/23 12:58:37;;;;;;;0.20;0.20;;;;;;;12.36;100.00;101447.81;5045868;28;20063;-51
2021/11/23 13:01:41;;;;;;;0.40;0.13;;;;;;;12.42;100.00;101441.19;5049456;28;20040;-51
2021/11/23 13:04:45;;;;;;;0.90;0.30;;;;;;;12.51;100.00;101440.50;5031772;28;20031;-50
2021/11/23 13:07:53;;;;;;;0.52;0.20;;;;;;;12.52;100.00;101433.69;5039921;28;20060;-51
2021/11/23 13:11:01;;;;;;;0.55;0.32;;;;;;;12.44;100.00;101429.56;5046509;28;20035;-51
2021/11/23 13:14:10;;;;;;;0.10;0.10;;;;;;;12.38;100.00;101434.16;5053047;28;20584;-50
2021/11/23 13:17:15;;;;;;;0.50;0.30;;;;;;;12.47;100.00;101431.47;5031632;28;20137;-50
2021/11/23 13:20:33;;;;;;;0.13;0.13;;;;;;;12.56;100.00;101420.38;5053104;28;20102;-53
2021/11/23 13:23:49;;;;;;;0.15;0.15;;;;;;;12.68;100.00;101422.34;5056439;28;20043;-52
2021/11/23 13:26:57;;;;;;;1.05;0.40;;;;;;;12.71;100.00;101411.03;5055786;28;20097;-52
2021/11/23 13:30:23;;;;;;;0.40;0.10;;;;;;;12.73;100.00;101408.56;5057492;28;20424;-52
2021/11/23 13:33:46;;;;;;;0.20;0.10;;;;;;;12.80;100.00;101401.94;5055295;28;20059;-52
2021/11/23 13:36:55;;;;;;;0.15;0.15;;;;;;;12.76;100.00;101406.88;5052247;28;20135;-52
2021/11/23 13:40:26;;;;;;;0.75;0.30;;;;;;;12.78;100.00;101404.41;5051351;28;20063;-52
2021/11/23 13:43:54;;;;;;;0.40;0.20;;;;;;;12.75;100.00;101405.34;5054424;28;20047;-52
2021/11/23 13:47:19;;;;;;;0.38;0.38;;;;;;;12.77;100.00;101405.66;5050460;28;20042;-52
2021/11/23 13:50:23;;;;;;;1.35;0.30;;;;;;;12.73;100.00;101396.63;5047035;28;20058;-52
2021/11/23 13:53:56;;;;;;;1.50;0.20;;;;;;;12.74;100.00;101392.59;5052400;28;20114;-52
2021/11/23 13:57:03;;;;;;;0.20;0.20;;;;;;;12.77;100.00;101391.69;5052532;28;20044;-51
2021/11/23 14:00:18;;;;;;;0.10;0.10;;;;;;;12.77;100.00;101397.28;5052254;28;20106;-50
2021/11/23 14:03:32;;;;;;;0.47;0.35;;;;;;;12.82;100.00;101388.31;5030483;28;20106;-51
2021/11/23 14:07:11;;;;;;;0.20;0.20;;;;;;;12.81;100.00;101389.56;5048327;28;20737;-52
2021/11/23 14:10:37;;;;;;;0.30;0.30;;;;;;;12.83;100.00;101379.47;5057890;28;20198;-51
2021/11/23 14:13:48;;;;;;;0.28;0.22;;;;;;;12.85;100.00;101379.81;5073852;28;20067;-52
2021/11/23 14:16:58;;;;;;;2.35;1.27;;;;;;;12.81;100.00;101376.34;5072884;28;20043;-52
2021/11/23 14:20:07;;;;;;;0.32;0.32;;;;;;;12.75;100.00;101361.41;5072919;28;20055;-52
2021/11/23 14:23:16;;;;;;;1.13;0.80;;;;;;;12.76;100.00;101370.56;5071637;28;20055;-52
2021/11/23 14:26:25;;;;;;;1.88;0.40;;;;;;;12.74;100.00;101370.22;5072439;28;20090;-52